Погода Боубонна неделю

Диффа, Нигер

24 февраля-01 марта
  • 24февраля
    Сегодня
    +21°
    +39°
    Ясно и безоблачно
    ВремяПогодаТемператураВлажностьДавлениеВетер, м/сВероятность осадков
    01:00Ясно и безоблачно+24°C19 %741 мм2.3 м/с1 %
    04:00Ясно и безоблачно+21°C22 %740 мм2.0 м/с1 %
    07:00Ясно и безоблачно+20°C26 %741 мм2.4 м/с1 %
    10:00Облачно с прояснениями+30°C14 %743 мм4.2 м/с1 %
    13:00Ясно и безоблачно+38°C12 %742 мм4.2 м/с1 %
    16:00Ясно и безоблачно+38°C10 %740 мм2.9 м/с1 %
    19:00Облачно с прояснениями+34°C12 %740 мм2.2 м/с1 %
    22:00Ясно и безоблачно+28°C18 %742 мм2.3 м/с1 %
  • 25февраля
    Воскресенье
    +22°
    +40°
    Ясно и безоблачно
    ВремяПогодаТемператураВлажностьДавлениеВетер, м/сВероятность осадков
    01:00Ясно и безоблачно+26°C23 %742 мм2.1 м/с1 %
    04:00Ясно и безоблачно+23°C27 %740 мм2.1 м/с1 %
    07:00Небольшая облачность+21°C33 %742 мм2.2 м/с1 %
    10:00Ясно и безоблачно+31°C21 %744 мм4.0 м/с1 %
    13:00Ясно и безоблачно+38°C12 %743 мм3.9 м/с1 %
    16:00Ясно и безоблачно+39°C10 %740 мм3.2 м/с1 %
    19:00Практически безоблачно+34°C13 %740 мм2.4 м/с1 %
    22:00Облачно с прояснениями+28°C17 %742 мм2.0 м/с1 %
  • 26февраля
    Понедельник
    +21°
    +40°
    Ясно и безоблачно
    ВремяПогодаТемператураВлажностьДавлениеВетер, м/сВероятность осадков
    01:00Ясно и безоблачно+26°C18 %741 мм2.3 м/с1 %
    04:00Ясно и безоблачно+23°C19 %740 мм2.1 м/с1 %
    07:00Ясно и безоблачно+22°C19 %741 мм2.6 м/с1 %
    10:00Ясно и безоблачно+32°C10 %743 мм4.6 м/с1 %
    13:00Ясно и безоблачно+39°C6 %741 мм4.4 м/с1 %
    16:00Ясно и безоблачно+40°C7 %739 мм3.3 м/с1 %
    19:00Ясно и безоблачно+34°C10 %739 мм2.6 м/с1 %
    22:00Ясно и безоблачно+28°C12 %740 мм2.0 м/с1 %
  • 27февраля
    Вторник
    +21°
    +41°
    Ясно и безоблачно
    ВремяПогодаТемператураВлажностьДавлениеВетер, м/сВероятность осадков
    01:00Ясно и безоблачно+26°C12 %740 мм2.4 м/с1 %
    04:00Ясно и безоблачно+23°C12 %739 мм2.0 м/с1 %
    07:00Облачно с прояснениями+22°C14 %740 мм2.0 м/с1 %
    10:00Практически безоблачно+32°C7 %742 мм3.9 м/с1 %
    13:00Ясно и безоблачно+39°C4 %741 мм4.3 м/с1 %
    16:00Ясно и безоблачно+40°C5 %738 мм3.4 м/с1 %
    19:00Ясно и безоблачно+34°C8 %738 мм2.4 м/с1 %
    22:00Ясно и безоблачно+29°C10 %740 мм2.1 м/с1 %
  • 28февраля
    Среда
    +22°
    +41°
    Ясно и безоблачно
    ВремяПогодаТемператураВлажностьДавлениеВетер, м/сВероятность осадков
    01:00Ясно и безоблачно+26°C12 %740 мм1.9 м/с1 %
    04:00Ясно и безоблачно+23°C13 %739 мм1.6 м/с1 %
    07:00Ясно и безоблачно+22°C14 %739 мм1.9 м/с1 %
    10:00Ясно и безоблачно+33°C7 %741 мм3.7 м/с1 %
    13:00Ясно и безоблачно+40°C5 %740 мм3.3 м/с1 %
    16:00Ясно и безоблачно+41°C5 %737 мм3.3 м/с1 %
    19:00Ясно и безоблачно+35°C8 %737 мм2.6 м/с1 %
    22:00Ясно и безоблачно+29°C11 %739 мм1.9 м/с1 %
Мы используем cookies
Соглашаюсь